Time;durP1;ratioP1;P1;durP2;ratioP2;P2;SDS_P1;SDS_P2;PMS_P1;PMS_P2;Temp;Humidity;BMP_temperature;BMP_pressure;BME280_temperature;BME280_humidity;BME280_pressure;Samples;Min_cycle;Max_cycle;Signal;HPM_P1;HPM_P2
2022/04/19 00:01:17;;;;;;;1.63;1.00;;;5.90;67.70;;;;;;4918275;29;20104;-73
2022/04/19 00:03:43;;;;;;;1.95;1.15;;;5.90;67.80;;;;;;4935445;29;20222;-73
2022/04/19 00:06:09;;;;;;;1.70;1.10;;;5.80;68.70;;;;;;4940854;28;20759;-73
2022/04/19 00:08:35;;;;;;;2.17;1.23;;;5.80;69.10;;;;;;4919958;29;20035;-73
2022/04/19 00:11:02;;;;;;;2.20;1.25;;;5.70;69.30;;;;;;4935017;29;20024;-73
2022/04/19 00:13:28;;;;;;;0.85;0.80;;;5.70;69.00;;;;;;4919198;29;20550;-73
2022/04/19 00:15:55;;;;;;;3.88;1.27;;;5.70;69.30;;;;;;4936838;28;20511;-73
2022/04/19 00:18:22;;;;;;;1.67;0.85;;;5.60;69.20;;;;;;4936483;29;20043;-73
2022/04/19 00:20:49;;;;;;;1.77;1.35;;;5.60;69.90;;;;;;4922191;29;20028;-73
2022/04/19 00:23:15;;;;;;;2.53;1.38;;;5.60;70.20;;;;;;4939950;29;20042;-73
2022/04/19 00:25:50;;;;;;;1.73;1.20;;;5.60;70.40;;;;;;4939725;28;20028;-73
2022/04/19 00:28:16;;;;;;;1.75;1.48;;;5.60;70.70;;;;;;4923041;29;20039;-73
2022/04/19 00:30:43;;;;;;;2.03;1.10;;;5.60;70.90;;;;;;4922691;29;20030;-73
2022/04/19 00:33:09;;;;;;;1.98;1.58;;;5.60;71.30;;;;;;4938627;29;20561;-73
2022/04/19 00:35:36;;;;;;;5.53;1.58;;;5.60;71.50;;;;;;4937523;29;20038;-74
2022/04/19 00:38:02;;;;;;;1.67;1.20;;;5.60;71.60;;;;;;4918912;29;20042;-73
2022/04/19 00:40:29;;;;;;;3.78;1.40;;;5.60;71.50;;;;;;4919095;29;20043;-73
2022/04/19 00:42:54;;;;;;;2.47;1.50;;;5.60;71.30;;;;;;4928004;29;20873;-73
2022/04/19 00:45:22;;;;;;;1.83;1.00;;;5.50;71.50;;;;;;4936815;28;20126;-73
2022/04/19 00:47:49;;;;;;;3.15;1.35;;;5.50;71.80;;;;;;4941987;29;20039;-73
2022/04/19 00:50:15;;;;;;;2.38;1.30;;;5.40;71.90;;;;;;4924197;29;20110;-73
2022/04/19 00:52:43;;;;;;;2.38;1.30;;;5.40;72.10;;;;;;4916733;29;20035;-73
2022/04/19 00:55:10;;;;;;;2.05;1.38;;;5.40;72.40;;;;;;4933317;29;20063;-73
2022/04/19 00:57:41;;;;;;;4.18;1.48;;;5.40;72.50;;;;;;4917881;29;20034;-73
2022/04/19 01:00:12;;;;;;;1.48;1.33;;;5.40;72.20;;;;;;4917266;29;20028;-73
2022/04/19 01:02:41;;;;;;;1.52;1.10;;;5.40;71.80;;;;;;4900462;29;20062;-73
2022/04/19 01:05:11;;;;;;;1.95;1.40;;;5.40;72.50;;;;;;4928546;29;20082;-73
2022/04/19 01:07:38;;;;;;;1.33;1.20;;;5.50;72.50;;;;;;4918444;29;20559;-73
2022/04/19 01:10:06;;;;;;;1.63;1.00;;;5.50;72.50;;;;;;4912322;29;20436;-73
2022/04/19 01:15:19;;;;;;;2.45;1.10;;;5.60;72.40;;;;;;4915100;29;20043;-73
2022/04/19 01:18:08;;;;;;;1.33;1.20;;;5.60;72.70;;;;;;4911477;29;20035;-73
2022/04/19 01:20:38;;;;;;;2.40;1.30;;;5.70;72.80;;;;;;4912416;29;20476;-73
2022/04/19 01:23:07;;;;;;;1.58;1.38;;;5.70;72.90;;;;;;4929829;29;20564;-73
2022/04/19 01:25:34;;;;;;;2.15;1.33;;;5.80;73.20;;;;;;4915994;29;20038;-73
2022/04/19 01:28:00;;;;;;;1.73;1.20;;;5.80;72.50;;;;;;4913391;29;20035;-73
2022/04/19 01:30:27;;;;;;;1.77;1.10;;;5.90;72.30;;;;;;4914232;29;20526;-73
2022/04/19 01:32:54;;;;;;;1.38;1.17;;;5.90;72.20;;;;;;4914571;29;20031;-73
2022/04/19 01:35:23;;;;;;;2.17;1.20;;;5.90;72.20;;;;;;4915608;29;20395;-73
2022/04/19 01:37:54;;;;;;;2.35;1.60;;;6.00;72.60;;;;;;4917836;29;20019;-73
2022/04/19 01:40:31;;;;;;;2.75;1.40;;;6.00;72.50;;;;;;4916822;29;20406;-73
2022/04/19 01:42:59;;;;;;;3.40;1.50;;;6.00;72.70;;;;;;4920502;29;20150;-73
2022/04/19 01:45:33;;;;;;;1.80;1.50;;;5.90;73.10;;;;;;4923699;29;20047;-73
2022/04/19 01:48:03;;;;;;;3.20;1.50;;;5.80;73.80;;;;;;4919523;29;20035;-73
2022/04/19 01:50:30;;;;;;;1.27;1.17;;;5.70;73.50;;;;;;4935622;29;20039;-73
2022/04/19 01:53:00;;;;;;;2.03;1.23;;;5.60;74.50;;;;;;4918567;29;20089;-73
2022/04/19 01:55:28;;;;;;;2.60;1.13;;;5.50;75.00;;;;;;4922305;28;20031;-73
2022/04/19 01:57:59;;;;;;;3.53;1.40;;;5.40;75.80;;;;;;4928604;29;20023;-73
2022/04/19 02:00:33;;;;;;;3.10;1.58;;;5.30;75.10;;;;;;4923464;29;20031;-73
2022/04/19 02:03:03;;;;;;;3.85;1.70;;;5.20;75.40;;;;;;4919820;29;20458;-73
2022/04/19 02:05:28;;;;;;;2.13;1.27;;;5.20;75.90;;;;;;4939263;28;20066;-73
2022/04/19 02:07:54;;;;;;;1.70;1.20;;;5.10;76.00;;;;;;4938753;29;20066;-73
2022/04/19 02:10:23;;;;;;;1.65;1.30;;;5.10;76.50;;;;;;4918221;29;20032;-73
2022/04/19 02:12:51;;;;;;;4.38;2.15;;;5.10;76.60;;;;;;4918293;29;20028;-73
2022/04/19 02:15:45;;;;;;;4.03;1.40;;;5.10;77.10;;;;;;4933214;28;20392;-73
2022/04/19 02:18:17;;;;;;;2.15;1.38;;;5.00;77.30;;;;;;4918527;29;20031;-73
2022/04/19 02:20:45;;;;;;;2.40;1.58;;;4.90;77.90;;;;;;4922474;29;20026;-73
2022/04/19 02:23:12;;;;;;;2.67;1.40;;;4.90;77.90;;;;;;4941141;29;20084;-73
2022/04/19 02:25:39;;;;;;;2.63;1.40;;;4.90;77.80;;;;;;4941984;28;20035;-72
2022/04/19 02:28:10;;;;;;;1.90;1.52;;;4.90;77.90;;;;;;4918549;29;20032;-73
2022/04/19 02:30:38;;;;;;;3.03;1.60;;;4.80;78.30;;;;;;4915380;29;20074;-73
2022/04/19 02:33:10;;;;;;;2.67;1.27;;;4.80;78.40;;;;;;4917035;29;20024;-73
2022/04/19 02:35:38;;;;;;;1.85;1.50;;;4.80;78.60;;;;;;4914331;29;20511;-73
2022/04/19 02:38:05;;;;;;;1.45;1.23;;;4.80;78.70;;;;;;4895803;29;20060;-73
2022/04/19 02:40:37;;;;;;;1.67;1.13;;;4.70;78.90;;;;;;4927314;29;20036;-73
2022/04/19 02:43:04;;;;;;;2.58;1.35;;;4.70;78.80;;;;;;4916116;29;20035;-73
2022/04/19 02:45:30;;;;;;;2.17;1.33;;;4.60;79.20;;;;;;4915991;29;20055;-73
2022/04/19 02:48:04;;;;;;;3.58;1.40;;;4.60;79.20;;;;;;4914956;29;20042;-72
2022/04/19 02:50:40;;;;;;;4.90;2.00;;;4.60;79.50;;;;;;4929283;29;20399;-73
2022/04/19 02:53:06;;;;;;;2.35;1.27;;;4.50;79.70;;;;;;4931239;29;20673;-73
2022/04/19 02:55:36;;;;;;;1.83;1.25;;;4.50;79.80;;;;;;4921683;29;20046;-75
2022/04/19 02:58:02;;;;;;;4.43;1.60;;;4.50;79.90;;;;;;4921676;29;20078;-74
2022/04/19 03:00:28;;;;;;;3.17;1.55;;;4.40;80.20;;;;;;4916878;29;20032;-74
2022/04/19 03:02:54;;;;;;;2.22;1.60;;;4.40;80.60;;;;;;4915967;29;20456;-72
2022/04/19 03:05:21;;;;;;;1.63;1.30;;;4.30;80.90;;;;;;4919650;29;20063;-73
2022/04/19 03:07:48;;;;;;;5.22;1.90;;;4.30;81.20;;;;;;4920811;29;20026;-72
2022/04/19 03:10:18;;;;;;;5.20;1.90;;;4.30;81.20;;;;;;4920255;29;20066;-73
2022/04/19 03:12:45;;;;;;;2.25;1.63;;;4.20;81.40;;;;;;4921327;29;20083;-73
2022/04/19 03:15:20;;;;;;;2.60;1.90;;;4.20;81.40;;;;;;4940734;28;20051;-74
2022/04/19 03:17:46;;;;;;;2.92;1.60;;;4.20;81.50;;;;;;4922251;29;20035;-72
2022/04/19 03:20:13;;;;;;;2.40;1.48;;;4.10;81.70;;;;;;4919509;29;20027;-72
2022/04/19 03:28:13;;;;;;;1.63;1.30;;;4.00;82.50;;;;;;4918385;29;20159;-73
2022/04/19 03:30:40;;;;;;;2.03;1.70;;;3.90;82.70;;;;;;4924258;29;20024;-73
2022/04/19 03:33:07;;;;;;;3.33;1.90;;;3.90;82.80;;;;;;4924501;29;20640;-73
2022/04/19 03:35:36;;;;;;;2.88;1.65;;;3.80;83.10;;;;;;4921839;28;20043;-73
2022/04/19 03:38:04;;;;;;;2.33;1.60;;;3.80;83.30;;;;;;4919001;29;20031;-73
2022/04/19 03:40:30;;;;;;;3.92;1.90;;;3.80;83.40;;;;;;4924736;29;20027;-73
2022/04/19 03:42:56;;;;;;;1.75;1.50;;;3.70;83.50;;;;;;4908418;29;20035;-73
2022/04/19 03:45:24;;;;;;;1.88;1.55;;;3.70;83.70;;;;;;4902054;29;20042;-74
2022/04/19 03:47:50;;;;;;;3.08;1.90;;;3.70;83.80;;;;;;4920698;29;20023;-73
2022/04/19 03:50:16;;;;;;;2.20;1.55;;;3.60;84.00;;;;;;4934963;29;20027;-73
2022/04/19 03:52:42;;;;;;;3.78;2.45;;;3.60;84.30;;;;;;4938273;29;20023;-73
2022/04/19 03:55:08;;;;;;;2.13;1.70;;;3.60;84.40;;;;;;4904499;29;20142;-73
2022/04/19 03:57:36;;;;;;;4.22;1.73;;;3.50;84.80;;;;;;4924709;29;20451;-73
2022/04/19 04:00:04;;;;;;;3.38;2.00;;;3.50;84.80;;;;;;4917443;29;20095;-73
2022/04/19 04:02:42;;;;;;;2.35;1.60;;;3.50;84.70;;;;;;4921642;29;20531;-73
2022/04/19 04:05:12;;;;;;;3.70;1.90;;;3.50;85.20;;;;;;4922555;29;20558;-73
2022/04/19 04:07:40;;;;;;;3.25;1.77;;;3.40;85.30;;;;;;4914895;29;20032;-73
2022/04/19 04:10:08;;;;;;;3.88;1.77;;;3.40;85.20;;;;;;4916944;29;20038;-73
2022/04/19 04:12:35;;;;;;;2.47;1.67;;;3.40;85.40;;;;;;4927363;29;20035;-73
2022/04/19 04:15:01;;;;;;;2.70;1.73;;;3.40;85.50;;;;;;4923229;29;20038;-73
2022/04/19 04:17:27;;;;;;;2.83;2.30;;;3.40;85.70;;;;;;4918580;29;20044;-73
2022/04/19 04:19:53;;;;;;;2.95;1.70;;;3.40;85.70;;;;;;4931815;29;20031;-73
2022/04/19 04:22:21;;;;;;;3.60;1.85;;;3.40;85.80;;;;;;4915898;29;20044;-73
2022/04/19 04:24:47;;;;;;;4.00;2.00;;;3.50;85.90;;;;;;4918772;29;20554;-73
2022/04/19 04:27:13;;;;;;;3.65;1.90;;;3.50;85.80;;;;;;4931573;29;20070;-73
2022/04/19 04:29:40;;;;;;;4.38;1.70;;;3.50;85.60;;;;;;4900814;29;20024;-73
2022/04/19 04:32:06;;;;;;;2.85;1.92;;;3.50;85.70;;;;;;4919009;29;20780;-73
2022/04/19 04:34:33;;;;;;;5.30;1.70;;;3.60;86.00;;;;;;4925047;29;20028;-73
2022/04/19 04:37:00;;;;;;;4.43;1.83;;;3.60;86.10;;;;;;4918278;29;20036;-73
2022/04/19 04:39:26;;;;;;;3.92;1.98;;;3.60;86.00;;;;;;4922683;29;20102;-73
2022/04/19 04:42:10;;;;;;;4.95;1.73;;;3.60;85.70;;;;;;4935777;29;20087;-73
2022/04/19 04:44:35;;;;;;;2.70;2.08;;;3.60;85.90;;;;;;4915130;29;20117;-72
2022/04/19 04:49:47;;;;;;;3.42;1.70;;;3.70;85.70;;;;;;4932053;29;20031;-72
2022/04/19 04:52:18;;;;;;;3.55;1.70;;;3.80;85.70;;;;;;4921344;29;20507;-72
2022/04/19 04:54:45;;;;;;;2.72;1.92;;;3.80;85.40;;;;;;4917645;29;20067;-72
2022/04/19 04:57:19;;;;;;;2.58;2.03;;;3.80;85.20;;;;;;4916178;29;20035;-73
2022/04/19 04:59:47;;;;;;;3.08;1.85;;;3.90;85.30;;;;;;4920373;29;20403;-73
2022/04/19 05:02:13;;;;;;;2.78;1.80;;;4.00;85.00;;;;;;4918285;29;20023;-73
2022/04/19 05:04:40;;;;;;;5.32;2.00;;;4.00;85.20;;;;;;4920533;29;20497;-73
2022/04/19 05:07:06;;;;;;;3.85;1.83;;;4.10;85.00;;;;;;4919774;29;20024;-73
2022/04/19 05:09:41;;;;;;;2.78;1.73;;;4.20;84.80;;;;;;4917574;29;20479;-72
2022/04/19 05:12:09;;;;;;;4.20;2.40;;;4.30;84.60;;;;;;4921073;29;20035;-73
2022/04/19 05:14:35;;;;;;;3.15;1.77;;;4.40;84.40;;;;;;4931321;29;20032;-72
2022/04/19 05:17:01;;;;;;;3.45;1.58;;;4.50;84.30;;;;;;4919504;29;20034;-73
2022/04/19 05:19:27;;;;;;;4.10;1.67;;;4.60;84.00;;;;;;4916005;29;20027;-72
2022/04/19 05:21:54;;;;;;;2.08;1.70;;;4.70;83.30;;;;;;4918036;29;20054;-73
2022/04/19 05:24:19;;;;;;;2.60;1.83;;;4.90;82.60;;;;;;4918575;29;20068;-73
2022/04/19 05:26:45;;;;;;;3.60;2.00;;;5.10;82.50;;;;;;4925725;29;20032;-72
2022/04/19 05:29:11;;;;;;;2.45;1.60;;;5.30;82.00;;;;;;4917298;29;20036;-72
2022/04/19 05:31:37;;;;;;;3.38;1.80;;;5.60;81.60;;;;;;4922857;29;20388;-72
2022/04/19 05:34:03;;;;;;;3.70;1.80;;;5.90;80.00;;;;;;4915352;29;20060;-73
2022/04/19 05:36:29;;;;;;;3.08;2.25;;;6.40;78.90;;;;;;4921540;29;20043;-72
2022/04/19 05:38:55;;;;;;;2.65;1.70;;;7.10;75.90;;;;;;4918294;29;20035;-72
2022/04/19 05:41:23;;;;;;;3.28;1.63;;;8.50;72.10;;;;;;4918637;29;20031;-72
2022/04/19 05:43:51;;;;;;;3.17;1.75;;;9.80;67.80;;;;;;4923381;29;20653;-72
2022/04/19 05:46:20;;;;;;;3.15;1.92;;;10.40;62.60;;;;;;4913999;29;20059;-73
2022/04/19 05:48:45;;;;;;;2.90;1.45;;;11.10;59.60;;;;;;4923358;29;20023;-72
2022/04/19 05:51:12;;;;;;;2.90;1.90;;;12.80;55.70;;;;;;4917478;29;20042;-73
2022/04/19 05:53:39;;;;;;;2.58;1.48;;;14.40;50.30;;;;;;4921821;29;20236;-72
2022/04/19 05:56:06;;;;;;;3.15;1.52;;;15.60;47.00;;;;;;4914218;29;20148;-73
2022/04/19 05:58:32;;;;;;;2.42;2.00;;;16.50;44.70;;;;;;4929028;29;20571;-73
2022/04/19 06:00:58;;;;;;;2.78;1.70;;;17.80;41.60;;;;;;4924488;29;20058;-73
2022/04/19 06:06:08;;;;;;;3.40;1.60;;;19.20;38.00;;;;;;4914389;29;20028;-73
2022/04/19 06:08:37;;;;;;;3.17;1.98;;;20.00;36.40;;;;;;4914134;29;20452;-73
2022/04/19 06:11:11;;;;;;;3.20;2.03;;;21.30;34.50;;;;;;4916985;29;20027;-73
2022/04/19 06:13:37;;;;;;;3.83;2.08;;;22.40;32.20;;;;;;4920119;29;20035;-73
2022/04/19 06:16:04;;;;;;;4.28;2.00;;;22.40;31.70;;;;;;4920964;29;20039;-72
2022/04/19 06:18:31;;;;;;;2.88;2.20;;;22.50;30.70;;;;;;4916510;29;20523;-72
2022/04/19 06:21:03;;;;;;;3.97;2.03;;;23.10;30.70;;;;;;4925176;29;20042;-73
2022/04/19 06:23:29;;;;;;;2.22;1.58;;;23.80;30.40;;;;;;4926242;29;20083;-72
2022/04/19 06:25:55;;;;;;;2.80;2.00;;;24.60;29.20;;;;;;4941342;29;20027;-73
2022/04/19 06:28:23;;;;;;;2.22;1.73;;;25.20;28.30;;;;;;4923168;29;20102;-73
2022/04/19 06:31:14;;;;;;;4.35;2.20;;;26.30;28.10;;;;;;4917663;29;20040;-73
2022/04/19 06:33:43;;;;;;;3.03;1.77;;;26.40;27.30;;;;;;4918387;29;20032;-73
2022/04/19 06:36:10;;;;;;;3.10;1.63;;;25.30;27.70;;;;;;4919771;29;20075;-72
2022/04/19 06:38:36;;;;;;;3.90;2.10;;;25.30;27.90;;;;;;4926410;29;20069;-73
2022/04/19 06:41:02;;;;;;;2.50;1.95;;;25.10;27.90;;;;;;4924359;29;20055;-73
2022/04/19 06:43:31;;;;;;;2.67;1.83;;;25.50;27.20;;;;;;4920981;29;20053;-73
2022/04/19 06:46:12;;;;;;;4.20;2.17;;;25.90;27.30;;;;;;4909718;29;20031;-73
2022/04/19 06:48:38;;;;;;;6.03;1.70;;;26.70;27.00;;;;;;4921352;29;20113;-73
2022/04/19 06:51:05;;;;;;;2.90;1.90;;;26.20;26.60;;;;;;4924401;29;20487;-73
2022/04/19 06:53:30;;;;;;;3.20;1.75;;;25.60;27.10;;;;;;4922518;29;20028;-73
2022/04/19 06:56:01;;;;;;;7.07;2.10;;;24.60;27.40;;;;;;4922356;29;20031;-73
2022/04/19 06:58:26;;;;;;;5.15;2.13;;;25.30;27.70;;;;;;4939595;29;20035;-73
2022/04/19 07:00:52;;;;;;;4.35;1.80;;;26.10;26.70;;;;;;4912525;29;20031;-73
2022/04/19 07:03:18;;;;;;;4.68;2.17;;;26.40;26.90;;;;;;4920599;29;20797;-73
2022/04/19 07:05:50;;;;;;;3.28;2.10;;;26.60;26.30;;;;;;4943355;28;20704;-73
2022/04/19 07:08:16;;;;;;;4.20;2.35;;;26.20;26.70;;;;;;4921126;29;20040;-73
2022/04/19 07:10:42;;;;;;;3.83;1.92;;;24.10;27.30;;;;;;4923396;29;20141;-73
2022/04/19 07:13:39;;;;;;;2.20;1.73;;;22.90;28.70;;;;;;4921067;29;20179;-73
2022/04/19 07:16:05;;;;;;;4.88;2.03;;;23.10;29.10;;;;;;4923499;29;20090;-73
2022/04/19 07:18:32;;;;;;;3.97;2.35;;;23.40;29.20;;;;;;4919004;29;20036;-73
2022/04/19 07:26:40;;;;;;;4.45;2.00;;;26.70;26.50;;;;;;4934217;29;20054;-73
2022/04/19 07:29:15;;;;;;;2.20;1.63;;;27.70;25.70;;;;;;4918798;29;20120;-73
2022/04/19 07:31:43;;;;;;;3.70;2.30;;;29.70;24.60;;;;;;4914548;29;20024;-73
2022/04/19 07:34:21;;;;;;;5.75;2.60;;;30.60;23.70;;;;;;4916493;29;20082;-73
2022/04/19 07:36:46;;;;;;;5.15;2.38;;;30.30;23.70;;;;;;4913623;29;20035;-73
2022/04/19 07:39:13;;;;;;;8.30;2.42;;;28.50;24.20;;;;;;4919288;29;20031;-74
2022/04/19 07:41:45;;;;;;;3.22;2.20;;;27.00;25.70;;;;;;4919993;29;20028;-74
2022/04/19 07:44:11;;;;;;;4.40;3.08;;;27.00;25.90;;;;;;4915137;29;20118;-74
2022/04/19 07:46:37;;;;;;;4.32;2.72;;;28.20;24.80;;;;;;4918771;29;20113;-75
2022/04/19 07:52:50;;;;;;;4.22;2.20;;;27.40;25.00;;;;;;4926458;23;20421;-75
2022/04/19 07:55:17;;;;;;;5.07;2.80;;;27.20;26.10;;;;;;4964947;28;20150;-75
2022/04/19 07:57:42;;;;;;;4.72;2.58;;;27.50;25.30;;;;;;4931883;28;20084;-75
2022/04/19 08:00:09;;;;;;;4.55;2.55;;;26.80;25.90;;;;;;4928689;29;20035;-70
2022/04/19 08:02:41;;;;;;;4.03;2.75;;;26.20;26.00;;;;;;4943554;28;20042;-75
2022/04/19 08:09:25;;;;;;;5.43;2.80;;;25.20;26.30;;;;;;5699302;23;20065;-72
2022/04/19 08:11:52;;;;;;;4.53;2.70;;;25.60;26.00;;;;;;4974662;28;20030;-73
2022/04/19 08:14:19;;;;;;;4.03;2.80;;;27.00;25.30;;;;;;4959039;28;20073;-72
2022/04/19 08:16:45;;;;;;;4.70;2.58;;;28.50;24.40;;;;;;4964717;28;20029;-71
2022/04/19 08:19:11;;;;;;;3.47;2.35;;;28.60;23.20;;;;;;4941061;28;20027;-71
2022/04/19 08:21:37;;;;;;;5.05;2.58;;;28.40;24.10;;;;;;4942761;28;20101;-72
2022/04/19 08:24:03;;;;;;;3.83;2.60;;;28.20;23.90;;;;;;4942397;28;20034;-70
2022/04/19 08:26:30;;;;;;;3.80;2.70;;;26.30;24.60;;;;;;4940530;28;20034;-71
2022/04/19 08:28:55;;;;;;;4.07;2.60;;;24.10;26.40;;;;;;4959150;28;20491;-71
2022/04/19 08:31:21;;;;;;;3.55;2.35;;;22.80;27.40;;;;;;4959867;28;20105;-70
2022/04/19 08:33:47;;;;;;;5.40;2.42;;;23.80;26.10;;;;;;4956813;28;20026;-70
2022/04/19 08:36:17;;;;;;;3.53;2.40;;;25.70;25.30;;;;;;4938857;28;20031;-71
2022/04/19 08:38:43;;;;;;;5.35;2.42;;;26.20;24.40;;;;;;4953178;28;20494;-75
2022/04/19 08:41:09;;;;;;;4.57;2.63;;;25.60;25.00;;;;;;4942435;28;20037;-73
2022/04/19 08:43:38;;;;;;;3.58;2.13;;;24.70;25.30;;;;;;4943726;28;20146;-73
2022/04/19 08:46:04;;;;;;;5.25;2.33;;;24.30;25.80;;;;;;4954394;28;20434;-73
2022/04/19 08:48:31;;;;;;;3.58;1.80;;;24.30;26.10;;;;;;4958431;28;20042;-74
2022/04/19 08:51:01;;;;;;;7.90;2.10;;;23.80;25.80;;;;;;4958431;28;20152;-73
2022/04/19 08:58:57;;;;;;;3.85;1.67;;;24.60;26.40;;;;;;4961279;28;20031;-74
2022/04/19 09:01:22;;;;;;;5.50;2.15;;;27.40;24.30;;;;;;4955740;28;20120;-74
2022/04/19 09:03:48;;;;;;;2.33;1.77;;;28.50;22.80;;;;;;4948795;28;20032;-74
2022/04/19 09:06:14;;;;;;;4.10;1.70;;;30.00;22.80;;;;;;4941815;28;20046;-74
2022/04/19 09:08:40;;;;;;;3.63;1.42;;;32.10;21.00;;;;;;4940075;28;20051;-73
2022/04/19 09:11:08;;;;;;;2.22;1.40;;;33.10;20.80;;;;;;4954325;28;20027;-74
2022/04/19 09:13:35;;;;;;;2.55;1.52;;;34.10;20.60;;;;;;4949567;28;20066;-73
2022/04/19 09:16:05;;;;;;;3.40;1.73;;;34.70;20.20;;;;;;4953160;28;20395;-74
2022/04/19 09:18:34;;;;;;;1.73;1.33;;;34.50;20.60;;;;;;4954705;28;20043;-74
2022/04/19 09:21:01;;;;;;;3.25;1.70;;;34.60;20.30;;;;;;4946834;28;20082;-73
2022/04/19 09:23:31;;;;;;;2.65;1.42;;;34.30;20.30;;;;;;4936751;28;20039;-71
2022/04/19 09:26:01;;;;;;;1.52;1.30;;;34.70;20.40;;;;;;4952602;28;20052;-71
2022/04/19 09:28:29;;;;;;;2.30;1.60;;;35.60;20.10;;;;;;4954173;28;21106;-72
2022/04/19 09:30:58;;;;;;;4.60;1.30;;;36.20;19.90;;;;;;4948053;28;20086;-72
2022/04/19 09:33:26;;;;;;;2.17;1.50;;;36.80;19.30;;;;;;4948718;28;20090;-72
2022/04/19 09:35:54;;;;;;;3.90;1.42;;;35.80;19.90;;;;;;4955774;28;20618;-73
2022/04/19 09:38:42;;;;;;;2.17;1.48;;;32.70;20.70;;;;;;4950040;28;20053;-72
2022/04/19 09:41:10;;;;;;;3.67;1.13;;;31.30;21.40;;;;;;4957178;28;20035;-72
2022/04/19 09:43:37;;;;;;;4.82;1.13;;;30.00;21.90;;;;;;4953018;28;20078;-72
2022/04/19 09:46:05;;;;;;;2.47;1.10;;;27.20;24.00;;;;;;4954577;28;20050;-72
2022/04/19 09:48:34;;;;;;;2.50;1.30;;;25.10;25.00;;;;;;4956177;28;20034;-72
2022/04/19 09:51:13;;;;;;;1.88;1.17;;;26.80;24.10;;;;;;4956520;28;20051;-73
2022/04/19 09:56:38;;;;;;;3.83;1.10;;;31.10;21.30;;;;;;5535924;23;20070;-71
2022/04/19 09:59:04;;;;;;;1.63;1.10;;;31.60;21.70;;;;;;4969522;28;20061;-72
2022/04/19 10:09:49;;;;;;;4.97;1.30;;;29.50;22.60;;;;;;4952735;28;20027;-72
2022/04/19 10:12:17;;;;;;;2.40;0.90;;;29.90;22.60;;;;;;4957934;28;20039;-72
2022/04/19 10:14:46;;;;;;;1.92;1.20;;;29.00;22.80;;;;;;4954924;28;20049;-72
2022/04/19 10:17:15;;;;;;;1.80;0.90;;;29.40;22.40;;;;;;4965296;23;20129;-74
2022/04/19 10:19:40;;;;;;;2.90;1.00;;;29.80;22.40;;;;;;4958422;28;20104;-74
2022/04/19 10:22:09;;;;;;;2.25;1.02;;;28.70;22.40;;;;;;4961005;28;20110;-74
2022/04/19 10:24:52;;;;;;;2.63;1.05;;;26.60;24.20;;;;;;4957337;28;20046;-74
2022/04/19 10:27:18;;;;;;;3.28;1.23;;;24.50;25.00;;;;;;4959362;28;20034;-75
2022/04/19 10:29:45;;;;;;;1.45;1.00;;;23.10;26.70;;;;;;4950580;28;20835;-71
2022/04/19 10:32:12;;;;;;;2.47;1.02;;;22.40;28.10;;;;;;4959917;28;20118;-71
2022/04/19 10:34:39;;;;;;;2.42;1.13;;;22.00;28.20;;;;;;4958952;28;20050;-71
2022/04/19 10:37:11;;;;;;;1.42;1.10;;;21.60;28.20;;;;;;4959342;28;20049;-72
2022/04/19 10:39:44;;;;;;;1.92;1.05;;;22.90;27.30;;;;;;4954534;28;20039;-72
2022/04/19 10:42:38;;;;;;;0.93;0.82;;;26.60;24.80;;;;;;4958499;28;20460;-71
2022/04/19 10:45:13;;;;;;;0.70;0.70;;;30.80;23.40;;;;;;4942877;29;20495;-72
2022/04/19 10:48:01;;;;;;;0.88;0.80;;;33.50;20.90;;;;;;4959716;28;20473;-72
2022/04/19 10:50:33;;;;;;;2.17;0.93;;;33.60;21.00;;;;;;4959068;28;20058;-72
2022/04/19 10:52:59;;;;;;;2.72;0.80;;;32.90;21.00;;;;;;4958956;28;20069;-68
2022/04/19 10:55:27;;;;;;;2.13;0.80;;;33.60;20.30;;;;;;4956622;28;20175;-72
2022/04/19 10:58:12;;;;;;;3.80;1.05;;;32.60;21.60;;;;;;4956043;28;20820;-69
2022/04/19 11:00:41;;;;;;;7.03;1.10;;;31.80;21.70;;;;;;4957601;28;20486;-70
2022/04/19 11:08:25;;;;;;;1.30;0.73;;;27.80;22.80;;;;;;4968883;28;20146;-75
2022/04/19 11:11:20;;;;;;;2.63;0.82;;;26.10;24.80;;;;;;4979686;28;20037;-71
2022/04/19 11:14:15;;;;;;;1.52;0.70;;;24.50;26.20;;;;;;4978558;28;20061;-78
2022/04/19 11:16:41;;;;;;;0.77;0.60;;;22.90;26.70;;;;;;4965314;28;20585;-76
2022/04/19 11:19:19;;;;;;;2.20;0.77;;;21.90;26.80;;;;;;4954476;28;20110;-74
2022/04/19 11:21:52;;;;;;;2.95;1.05;;;21.30;28.20;;;;;;4958833;28;20027;-69
2022/04/19 11:24:56;;;;;;;2.47;0.70;;;20.40;29.00;;;;;;4956609;28;20034;-72
2022/04/19 11:27:23;;;;;;;1.13;0.80;;;19.80;29.80;;;;;;4948762;28;20237;-79
2022/04/19 11:29:50;;;;;;;1.25;0.70;;;19.80;29.80;;;;;;4957610;28;20102;-71
2022/04/19 11:32:26;;;;;;;3.03;0.98;;;19.70;29.40;;;;;;4956720;28;20026;-72
2022/04/19 11:35:01;;;;;;;1.80;0.82;;;19.80;29.70;;;;;;4944253;28;20562;-76
2022/04/19 11:37:31;;;;;;;1.30;0.75;;;19.90;29.00;;;;;;4953954;28;20573;-71
2022/04/19 11:48:29;;;;;;;0.80;0.80;;;19.70;30.40;;;;;;4956261;28;20414;-77
2022/04/19 11:51:08;;;;;;;0.82;0.50;;;19.60;30.70;;;;;;4955937;28;20023;-70
2022/04/19 11:53:34;;;;;;;4.25;0.80;;;19.40;29.90;;;;;;4957926;28;20026;-71
2022/04/19 11:56:00;;;;;;;1.85;0.70;;;19.10;30.00;;;;;;4943053;28;20065;-73
2022/04/19 11:58:26;;;;;;;2.78;0.80;;;19.10;29.80;;;;;;4957324;28;20027;-73
2022/04/19 12:01:01;;;;;;;4.30;0.68;;;19.00;29.90;;;;;;4955406;28;20517;-73
2022/04/19 12:03:32;;;;;;;0.70;0.68;;;18.80;30.00;;;;;;4959006;28;20130;-72
2022/04/19 12:06:09;;;;;;;2.05;1.08;;;19.10;30.00;;;;;;4956594;28;20145;-73
2022/04/19 12:08:38;;;;;;;0.70;0.68;;;19.70;29.80;;;;;;4951377;28;20031;-73
2022/04/19 12:11:09;;;;;;;1.15;0.63;;;19.90;29.70;;;;;;4949663;28;20550;-73
2022/04/19 12:13:35;;;;;;;2.60;0.88;;;19.90;30.00;;;;;;4958060;28;20092;-73
2022/04/19 12:16:09;;;;;;;1.55;0.77;;;19.80;29.20;;;;;;4958443;28;20030;-73
2022/04/19 12:18:38;;;;;;;0.75;0.70;;;19.20;29.60;;;;;;4953178;28;20062;-73
2022/04/19 12:21:05;;;;;;;6.05;1.08;;;19.00;31.60;;;;;;4957620;28;20888;-73
2022/04/19 12:23:31;;;;;;;2.65;0.80;;;19.00;32.10;;;;;;4959024;28;20048;-72
2022/04/19 12:26:24;;;;;;;2.25;0.77;;;19.10;31.30;;;;;;4940668;28;20030;-72
2022/04/19 12:28:50;;;;;;;1.35;0.75;;;18.60;31.10;;;;;;4954031;28;20047;-70
2022/04/19 12:31:33;;;;;;;1.33;0.82;;;18.20;31.70;;;;;;4957971;28;20034;-71
2022/04/19 12:34:00;;;;;;;1.55;0.80;;;17.70;32.50;;;;;;4955436;28;20030;-68
2022/04/19 12:36:27;;;;;;;1.02;0.68;;;17.60;33.00;;;;;;4954980;28;20035;-72
2022/04/19 12:39:00;;;;;;;0.75;0.75;;;17.80;33.80;;;;;;4945052;28;20034;-69
2022/04/19 12:41:40;;;;;;;0.90;0.90;;;18.00;32.50;;;;;;4955537;28;20137;-76
2022/04/19 12:44:13;;;;;;;4.28;0.90;;;17.80;32.20;;;;;;4953557;28;20037;-71
2022/04/19 12:46:44;;;;;;;0.98;0.82;;;17.30;33.50;;;;;;4956267;28;20034;-71
2022/04/19 12:49:27;;;;;;;2.53;0.70;;;17.10;33.90;;;;;;4958189;28;20027;-73
2022/04/19 12:52:07;;;;;;;1.55;1.00;;;17.10;34.40;;;;;;4957094;28;20038;-70
2022/04/19 12:54:38;;;;;;;0.75;0.70;;;17.00;34.70;;;;;;4956333;28;20113;-76
2022/04/19 12:57:23;;;;;;;4.25;1.00;;;17.00;35.70;;;;;;4956852;28;20045;-74
2022/04/19 12:59:50;;;;;;;1.95;1.00;;;17.00;36.10;;;;;;4953719;28;20553;-72
2022/04/19 13:02:18;;;;;;;3.42;0.90;;;17.10;36.30;;;;;;4954875;28;20131;-75
2022/04/19 13:04:46;;;;;;;1.40;0.88;;;17.40;35.40;;;;;;4953006;28;20035;-75
2022/04/19 13:12:43;;;;;;;3.60;1.20;;;18.20;33.60;;;;;;4951908;28;20526;-76
2022/04/19 13:15:10;;;;;;;4.40;1.10;;;17.90;32.70;;;;;;4954285;28;20057;-80
2022/04/19 13:17:39;;;;;;;2.25;0.90;;;17.80;33.20;;;;;;4954864;28;20038;-78
2022/04/19 13:20:06;;;;;;;2.80;1.13;;;17.80;35.30;;;;;;4951936;28;20069;-79
2022/04/19 13:22:32;;;;;;;2.22;1.08;;;18.00;33.00;;;;;;4954933;28;20035;-71
2022/04/19 13:24:59;;;;;;;2.00;0.90;;;18.20;33.40;;;;;;4953281;28;20030;-73
2022/04/19 13:27:26;;;;;;;0.77;0.70;;;18.70;32.50;;;;;;4957547;28;20026;-71
2022/04/19 13:29:52;;;;;;;2.22;1.30;;;18.90;33.70;;;;;;4957001;28;20030;-74
2022/04/19 13:32:22;;;;;;;2.80;1.20;;;18.80;33.10;;;;;;4942209;28;20042;-72
2022/04/19 13:34:48;;;;;;;2.08;1.00;;;18.70;32.60;;;;;;4957809;28;20093;-72
2022/04/19 13:37:16;;;;;;;2.42;1.10;;;18.40;33.00;;;;;;4957395;28;20038;-71
2022/04/19 13:39:41;;;;;;;1.52;1.10;;;18.40;33.20;;;;;;4958572;28;20858;-72
2022/04/19 13:42:07;;;;;;;2.70;1.13;;;18.40;33.60;;;;;;4942656;28;20115;-74
2022/04/19 13:44:33;;;;;;;1.20;0.90;;;18.30;33.90;;;;;;4958431;28;20547;-74
2022/04/19 13:46:59;;;;;;;1.23;0.88;;;18.20;34.40;;;;;;4955368;28;20027;-74
2022/04/19 13:49:25;;;;;;;1.63;1.13;;;18.10;34.10;;;;;;4954262;28;20042;-73
2022/04/19 13:51:52;;;;;;;1.42;0.90;;;17.90;35.40;;;;;;4958552;28;20508;-74
2022/04/19 13:54:20;;;;;;;3.03;1.23;;;17.70;35.10;;;;;;4956460;28;20038;-72
2022/04/19 13:56:46;;;;;;;3.53;1.30;;;17.40;35.30;;;;;;4959898;28;20039;-73
2022/04/19 13:59:14;;;;;;;1.52;1.10;;;17.30;36.00;;;;;;4959222;28;20833;-73
2022/04/19 14:01:41;;;;;;;3.70;0.90;;;17.20;36.60;;;;;;4953862;28;20146;-73
2022/04/19 14:04:08;;;;;;;1.75;0.80;;;17.10;37.30;;;;;;4957621;28;20042;-73